Aérodrome :
LOGIN :

S'inscrire | Disclaimer

   EN    FR    IT 

 










Légende :    VFR   VFR Marginal   IFR   IFR Intensif   IFR Très Intensif
Visi : 
Plafond : 
>= 8 km
>= 3000ft
5 à 8 km
1000 à 3000 ft
1500m à 5 km
500 à 1000 ft
800 à 1500m
200 à 500 ft
< 800m
< 200 ft
Symboles :   Orages  Brouillard  Fortes neiges  Fortes précipitations  Vent > 20 kt
SIGMETs :   Divers  Orages  Givrage  Turbulence  Onde Orograph.  Cendres Volcan.






- Altitude de l'aérodrome : 357 ft
- Code IATA : TUF


LFOT - Tours

DERNIER METAR :
  • 261400Z AUTO 23008KT CAVOK 11/07 Q1017 TEMPO BKN012

METARs EXPIRÉS :
  • 261330Z AUTO 23008KT 9999 FEW022 SCT028 OVC058 11/06 Q1017 TEMPO BKN012
  • 261300Z AUTO 22010KT 190V250 9999 BKN020 BKN060 11/07 Q1017 TEMPO BKN012
  • 261230Z AUTO 22009KT 9999 BKN017 11/07 Q1017 TEMPO BKN012
  • 261200Z AUTO 22008KT 9999 SCT010 11/08 Q1017 TEMPO BKN012

TAF TAF LFOT
Valide du 26 à 12h jusqu'au 27 à 12h UTC


261100Z 2612/2712 22008KT 9999 BKN020
PROB30
TEMPO 2612/2615 BKN012
TEMPO 2619/2622 20015G25KT 4000 -RA BKN012
TEMPO 2622/2705 22020G30KT 2500 RA BKN008
PROB40
TEMPO 2705/2708 BKN006
BECMG 2708/2710 -RA BKN012
TEMPO 2711/2712 20015G25KT 2500 RA BKN007



MET'MAP, la Météo Aéronautique d'un coup d'oeil ! - Copyright ORBIFLY Décembre 2007 - Disclaimer

ORBIFLY MET'MAP TEAM :

Programmation & Développement : Alexandra Zaïnal
Sur une idée originale de : Baudouin d'Aumeries
Assistance à la programmation : Marc-Olivier Méhu
Soutien technique & logistique : Manuel Goepfert

Contact : metmap@orbifly.com




SOURCES & CREDITS :

   NOAA